sensor_id;sensor_type;location;lat;lon;timestamp;P1;durP1;ratioP1;P2;durP2;ratioP2
68653;SDS011;55636;51.108;13.622;2022-11-20T00:01:04;20.92;;;14.73;;
68653;SDS011;55636;51.108;13.622;2022-11-20T00:02:07;20.27;;;14.57;;
68653;SDS011;55636;51.108;13.622;2022-11-20T00:03:10;20.38;;;15.10;;
68653;SDS011;55636;51.108;13.622;2022-11-20T00:04:12;21.08;;;15.10;;
68653;SDS011;55636;51.108;13.622;2022-11-20T00:05:14;19.15;;;14.50;;
68653;SDS011;55636;51.108;13.622;2022-11-20T00:06:17;21.83;;;15.40;;
68653;SDS011;55636;51.108;13.622;2022-11-20T00:07:21;21.15;;;15.18;;
68653;SDS011;55636;51.108;13.622;2022-11-20T00:08:44;21.40;;;15.88;;
68653;SDS011;55636;51.108;13.622;2022-11-20T00:09:47;22.85;;;17.02;;
68653;SDS011;55636;51.108;13.622;2022-11-20T00:10:49;22.70;;;16.40;;
68653;SDS011;55636;51.108;13.622;2022-11-20T00:11:51;22.42;;;16.02;;
68653;SDS011;55636;51.108;13.622;2022-11-20T00:12:53;24.08;;;16.75;;
68653;SDS011;55636;51.108;13.622;2022-11-20T00:13:56;21.67;;;15.80;;
68653;SDS011;55636;51.108;13.622;2022-11-20T00:15:01;20.92;;;15.63;;
68653;SDS011;55636;51.108;13.622;2022-11-20T00:16:05;22.52;;;15.38;;
68653;SDS011;55636;51.108;13.622;2022-11-20T00:17:09;20.92;;;15.32;;
68653;SDS011;55636;51.108;13.622;2022-11-20T00:18:11;18.77;;;14.20;;
68653;SDS011;55636;51.108;13.622;2022-11-20T00:19:14;20.45;;;15.10;;
68653;SDS011;55636;51.108;13.622;2022-11-20T00:20:17;21.10;;;14.85;;
68653;SDS011;55636;51.108;13.622;2022-11-20T00:21:20;20.88;;;15.02;;
68653;SDS011;55636;51.108;13.622;2022-11-20T00:22:24;18.55;;;13.95;;
68653;SDS011;55636;51.108;13.622;2022-11-20T00:23:26;20.17;;;14.80;;
68653;SDS011;55636;51.108;13.622;2022-11-20T00:24:28;19.73;;;14.73;;
68653;SDS011;55636;51.108;13.622;2022-11-20T00:25:30;21.25;;;15.02;;
68653;SDS011;55636;51.108;13.622;2022-11-20T00:26:33;20.27;;;14.73;;
68653;SDS011;55636;51.108;13.622;2022-11-20T00:27:35;20.25;;;14.60;;
68653;SDS011;55636;51.108;13.622;2022-11-20T00:28:38;18.42;;;13.65;;
68653;SDS011;55636;51.108;13.622;2022-11-20T00:29:40;18.98;;;14.02;;
68653;SDS011;55636;51.108;13.622;2022-11-20T00:30:43;18.90;;;14.10;;
68653;SDS011;55636;51.108;13.622;2022-11-20T00:31:45;19.20;;;14.20;;
68653;SDS011;55636;51.108;13.622;2022-11-20T00:32:47;18.48;;;13.57;;
68653;SDS011;55636;51.108;13.622;2022-11-20T00:33:49;17.50;;;13.50;;
68653;SDS011;55636;51.108;13.622;2022-11-20T00:34:52;19.20;;;14.40;;
68653;SDS011;55636;51.108;13.622;2022-11-20T00:35:58;19.02;;;13.95;;
68653;SDS011;55636;51.108;13.622;2022-11-20T00:37:02;19.58;;;14.75;;
68653;SDS011;55636;51.108;13.622;2022-11-20T00:38:04;20.42;;;14.27;;
68653;SDS011;55636;51.108;13.622;2022-11-20T00:39:06;17.88;;;13.63;;
68653;SDS011;55636;51.108;13.622;2022-11-20T00:40:08;20.20;;;14.23;;
68653;SDS011;55636;51.108;13.622;2022-11-20T00:41:12;19.35;;;14.45;;
68653;SDS011;55636;51.108;13.622;2022-11-20T00:42:16;19.67;;;14.05;;
68653;SDS011;55636;51.108;13.622;2022-11-20T00:43:18;18.75;;;13.95;;
68653;SDS011;55636;51.108;13.622;2022-11-20T00:44:20;19.65;;;14.50;;
68653;SDS011;55636;51.108;13.622;2022-11-20T00:45:22;18.92;;;14.05;;
68653;SDS011;55636;51.108;13.622;2022-11-20T00:46:26;19.23;;;13.65;;
68653;SDS011;55636;51.108;13.622;2022-11-20T00:47:29;17.70;;;13.07;;
68653;SDS011;55636;51.108;13.622;2022-11-20T00:48:32;20.25;;;14.13;;
68653;SDS011;55636;51.108;13.622;2022-11-20T00:49:34;18.95;;;13.68;;
68653;SDS011;55636;51.108;13.622;2022-11-20T00:50:36;17.10;;;13.02;;
68653;SDS011;55636;51.108;13.622;2022-11-20T00:51:38;18.50;;;13.38;;
68653;SDS011;55636;51.108;13.622;2022-11-20T00:52:40;17.95;;;13.38;;
68653;SDS011;55636;51.108;13.622;2022-11-20T00:53:43;18.42;;;13.32;;
68653;SDS011;55636;51.108;13.622;2022-11-20T00:54:46;19.35;;;13.32;;
68653;SDS011;55636;51.108;13.622;2022-11-20T00:56:57;18.58;;;13.35;;
68653;SDS011;55636;51.108;13.622;2022-11-20T00:58:00;18.52;;;13.45;;
68653;SDS011;55636;51.108;13.622;2022-11-20T00:59:05;17.20;;;13.00;;
68653;SDS011;55636;51.108;13.622;2022-11-20T01:00:07;17.98;;;13.00;;
68653;SDS011;55636;51.108;13.622;2022-11-20T01:01:11;20.73;;;13.73;;
68653;SDS011;55636;51.108;13.622;2022-11-20T01:02:19;17.80;;;12.77;;
68653;SDS011;55636;51.108;13.622;2022-11-20T01:03:21;19.08;;;13.52;;
68653;SDS011;55636;51.108;13.622;2022-11-20T01:04:28;18.05;;;12.65;;
68653;SDS011;55636;51.108;13.622;2022-11-20T01:05:33;16.88;;;13.18;;
68653;SDS011;55636;51.108;13.622;2022-11-20T01:06:37;20.13;;;13.10;;
68653;SDS011;55636;51.108;13.622;2022-11-20T01:07:41;17.08;;;13.07;;
68653;SDS011;55636;51.108;13.622;2022-11-20T01:08:43;18.15;;;13.32;;
68653;SDS011;55636;51.108;13.622;2022-11-20T01:09:46;18.05;;;12.98;;
68653;SDS011;55636;51.108;13.622;2022-11-20T01:10:48;18.35;;;13.30;;
68653;SDS011;55636;51.108;13.622;2022-11-20T01:11:51;17.90;;;13.15;;
68653;SDS011;55636;51.108;13.622;2022-11-20T01:12:53;18.38;;;13.18;;
68653;SDS011;55636;51.108;13.622;2022-11-20T01:14:17;17.80;;;12.32;;
68653;SDS011;55636;51.108;13.622;2022-11-20T01:15:21;17.00;;;12.25;;
68653;SDS011;55636;51.108;13.622;2022-11-20T01:16:30;17.42;;;12.48;;
68653;SDS011;55636;51.108;13.622;2022-11-20T01:17:34;18.80;;;12.98;;
68653;SDS011;55636;51.108;13.622;2022-11-20T01:18:37;17.15;;;12.30;;
68653;SDS011;55636;51.108;13.622;2022-11-20T01:19:40;19.40;;;12.70;;
68653;SDS011;55636;51.108;13.622;2022-11-20T01:20:43;18.40;;;13.00;;
68653;SDS011;55636;51.108;13.622;2022-11-20T01:21:46;17.70;;;12.45;;
68653;SDS011;55636;51.108;13.622;2022-11-20T01:22:50;15.45;;;12.10;;
68653;SDS011;55636;51.108;13.622;2022-11-20T01:23:52;16.67;;;12.13;;
68653;SDS011;55636;51.108;13.622;2022-11-20T01:24:55;17.50;;;12.55;;
68653;SDS011;55636;51.108;13.622;2022-11-20T01:25:59;17.08;;;12.52;;
68653;SDS011;55636;51.108;13.622;2022-11-20T01:27:03;17.38;;;12.50;;
68653;SDS011;55636;51.108;13.622;2022-11-20T01:28:05;17.52;;;12.63;;
68653;SDS011;55636;51.108;13.622;2022-11-20T01:29:10;17.42;;;12.38;;
68653;SDS011;55636;51.108;13.622;2022-11-20T01:30:15;17.88;;;12.75;;
68653;SDS011;55636;51.108;13.622;2022-11-20T01:32:22;14.82;;;11.57;;
68653;SDS011;55636;51.108;13.622;2022-11-20T01:33:24;16.77;;;12.38;;
68653;SDS011;55636;51.108;13.622;2022-11-20T01:34:27;17.30;;;12.75;;
68653;SDS011;55636;51.108;13.622;2022-11-20T01:35:29;15.20;;;11.88;;
68653;SDS011;55636;51.108;13.622;2022-11-20T01:36:33;16.08;;;12.35;;
68653;SDS011;55636;51.108;13.622;2022-11-20T01:37:37;17.08;;;12.27;;
68653;SDS011;55636;51.108;13.622;2022-11-20T01:38:39;16.27;;;12.05;;
68653;SDS011;55636;51.108;13.622;2022-11-20T01:39:45;17.17;;;12.10;;
68653;SDS011;55636;51.108;13.622;2022-11-20T01:40:54;16.25;;;12.52;;
68653;SDS011;55636;51.108;13.622;2022-11-20T01:41:57;17.77;;;12.45;;
68653;SDS011;55636;51.108;13.622;2022-11-20T01:43:18;18.13;;;12.48;;
68653;SDS011;55636;51.108;13.622;2022-11-20T01:47:02;17.05;;;12.45;;
68653;SDS011;55636;51.108;13.622;2022-11-20T01:48:07;15.63;;;11.48;;
68653;SDS011;55636;51.108;13.622;2022-11-20T01:49:20;17.45;;;12.27;;
68653;SDS011;55636;51.108;13.622;2022-11-20T01:50:28;16.57;;;11.80;;
68653;SDS011;55636;51.108;13.622;2022-11-20T01:51:33;16.98;;;11.63;;
68653;SDS011;55636;51.108;13.622;2022-11-20T01:52:38;17.23;;;12.05;;
68653;SDS011;55636;51.108;13.622;2022-11-20T01:53:44;16.92;;;12.30;;
68653;SDS011;55636;51.108;13.622;2022-11-20T01:54:56;17.48;;;11.30;;
68653;SDS011;55636;51.108;13.622;2022-11-20T01:56:01;16.23;;;11.52;;
68653;SDS011;55636;51.108;13.622;2022-11-20T01:57:07;18.67;;;12.68;;
68653;SDS011;55636;51.108;13.622;2022-11-20T01:58:12;16.58;;;11.98;;
68653;SDS011;55636;51.108;13.622;2022-11-20T01:59:16;15.88;;;11.38;;
68653;SDS011;55636;51.108;13.622;2022-11-20T02:00:21;17.08;;;12.32;;
68653;SDS011;55636;51.108;13.622;2022-11-20T02:01:23;17.33;;;12.45;;
68653;SDS011;55636;51.108;13.622;2022-11-20T02:02:26;18.75;;;12.32;;
68653;SDS011;55636;51.108;13.622;2022-11-20T02:03:29;16.80;;;12.00;;
68653;SDS011;55636;51.108;13.622;2022-11-20T02:04:31;16.38;;;12.15;;
68653;SDS011;55636;51.108;13.622;2022-11-20T02:05:35;15.07;;;11.07;;
68653;SDS011;55636;51.108;13.622;2022-11-20T02:06:59;15.85;;;11.85;;
68653;SDS011;55636;51.108;13.622;2022-11-20T02:08:02;16.73;;;11.52;;
68653;SDS011;55636;51.108;13.622;2022-11-20T02:09:07;15.38;;;11.35;;
68653;SDS011;55636;51.108;13.622;2022-11-20T02:10:09;16.10;;;11.68;;
68653;SDS011;55636;51.108;13.622;2022-11-20T02:11:11;16.30;;;11.93;;
68653;SDS011;55636;51.108;13.622;2022-11-20T02:12:14;18.42;;;12.20;;
68653;SDS011;55636;51.108;13.622;2022-11-20T02:13:35;17.83;;;12.60;;
68653;SDS011;55636;51.108;13.622;2022-11-20T02:14:47;16.55;;;11.82;;
68653;SDS011;55636;51.108;13.622;2022-11-20T02:15:49;16.83;;;11.75;;
68653;SDS011;55636;51.108;13.622;2022-11-20T02:16:52;17.92;;;12.07;;
68653;SDS011;55636;51.108;13.622;2022-11-20T02:17:56;17.00;;;11.95;;
68653;SDS011;55636;51.108;13.622;2022-11-20T02:18:59;15.52;;;11.52;;
68653;SDS011;55636;51.108;13.622;2022-11-20T02:20:03;15.73;;;11.80;;
68653;SDS011;55636;51.108;13.622;2022-11-20T02:21:07;16.83;;;12.23;;
68653;SDS011;55636;51.108;13.622;2022-11-20T02:22:21;16.65;;;11.63;;
68653;SDS011;55636;51.108;13.622;2022-11-20T02:23:39;16.10;;;12.13;;
68653;SDS011;55636;51.108;13.622;2022-11-20T02:24:46;16.23;;;11.52;;
68653;SDS011;55636;51.108;13.622;2022-11-20T02:25:51;15.98;;;11.25;;
68653;SDS011;55636;51.108;13.622;2022-11-20T02:28:17;15.90;;;11.48;;
68653;SDS011;55636;51.108;13.622;2022-11-20T02:29:26;15.90;;;11.52;;
68653;SDS011;55636;51.108;13.622;2022-11-20T02:30:36;19.70;;;11.63;;
68653;SDS011;55636;51.108;13.622;2022-11-20T02:31:38;16.80;;;11.65;;
68653;SDS011;55636;51.108;13.622;2022-11-20T02:32:43;17.88;;;12.57;;
68653;SDS011;55636;51.108;13.622;2022-11-20T02:33:45;16.45;;;11.23;;
68653;SDS011;55636;51.108;13.622;2022-11-20T02:34:47;18.80;;;11.88;;
68653;SDS011;55636;51.108;13.622;2022-11-20T02:35:50;19.10;;;12.75;;
68653;SDS011;55636;51.108;13.622;2022-11-20T02:36:52;17.67;;;12.48;;
68653;SDS011;55636;51.108;13.622;2022-11-20T02:37:55;17.05;;;11.88;;
68653;SDS011;55636;51.108;13.622;2022-11-20T02:39:01;18.80;;;11.90;;
68653;SDS011;55636;51.108;13.622;2022-11-20T02:40:05;18.10;;;12.38;;
68653;SDS011;55636;51.108;13.622;2022-11-20T02:41:08;16.98;;;11.95;;
68653;SDS011;55636;51.108;13.622;2022-11-20T02:42:10;17.35;;;12.20;;
68653;SDS011;55636;51.108;13.622;2022-11-20T02:43:12;17.05;;;11.88;;
68653;SDS011;55636;51.108;13.622;2022-11-20T02:44:14;16.40;;;11.75;;
68653;SDS011;55636;51.108;13.622;2022-11-20T02:45:17;16.20;;;11.60;;
68653;SDS011;55636;51.108;13.622;2022-11-20T02:46:19;17.35;;;11.60;;
68653;SDS011;55636;51.108;13.622;2022-11-20T02:47:21;15.13;;;11.48;;
68653;SDS011;55636;51.108;13.622;2022-11-20T02:48:23;17.83;;;12.10;;
68653;SDS011;55636;51.108;13.622;2022-11-20T02:49:26;17.10;;;11.75;;
68653;SDS011;55636;51.108;13.622;2022-11-20T02:50:28;16.13;;;11.75;;
68653;SDS011;55636;51.108;13.622;2022-11-20T02:51:31;15.65;;;11.38;;
68653;SDS011;55636;51.108;13.622;2022-11-20T02:52:34;17.25;;;11.63;;
68653;SDS011;55636;51.108;13.622;2022-11-20T02:53:36;15.10;;;11.40;;
68653;SDS011;55636;51.108;13.622;2022-11-20T02:54:38;15.70;;;11.23;;
68653;SDS011;55636;51.108;13.622;2022-11-20T02:55:40;15.18;;;11.15;;
68653;SDS011;55636;51.108;13.622;2022-11-20T02:56:43;16.75;;;11.63;;
68653;SDS011;55636;51.108;13.622;2022-11-20T02:57:45;15.88;;;11.80;;
68653;SDS011;55636;51.108;13.622;2022-11-20T02:58:47;14.98;;;11.15;;
68653;SDS011;55636;51.108;13.622;2022-11-20T02:59:49;14.80;;;11.07;;
68653;SDS011;55636;51.108;13.622;2022-11-20T03:00:52;16.50;;;11.80;;
68653;SDS011;55636;51.108;13.622;2022-11-20T03:01:55;15.68;;;10.90;;
68653;SDS011;55636;51.108;13.622;2022-11-20T03:02:57;15.75;;;11.60;;
68653;SDS011;55636;51.108;13.622;2022-11-20T03:03:59;15.55;;;10.98;;
68653;SDS011;55636;51.108;13.622;2022-11-20T03:05:02;15.63;;;11.30;;
68653;SDS011;55636;51.108;13.622;2022-11-20T03:06:04;16.15;;;11.55;;
68653;SDS011;55636;51.108;13.622;2022-11-20T03:07:07;16.23;;;11.55;;
68653;SDS011;55636;51.108;13.622;2022-11-20T03:08:10;16.45;;;11.13;;
68653;SDS011;55636;51.108;13.622;2022-11-20T03:09:12;15.63;;;10.88;;
68653;SDS011;55636;51.108;13.622;2022-11-20T03:10:15;15.73;;;11.15;;
68653;SDS011;55636;51.108;13.622;2022-11-20T03:11:17;16.27;;;11.63;;
68653;SDS011;55636;51.108;13.622;2022-11-20T03:12:19;17.08;;;11.10;;
68653;SDS011;55636;51.108;13.622;2022-11-20T03:13:21;15.60;;;11.02;;
68653;SDS011;55636;51.108;13.622;2022-11-20T03:14:24;16.30;;;11.38;;
68653;SDS011;55636;51.108;13.622;2022-11-20T03:15:26;17.88;;;11.50;;
68653;SDS011;55636;51.108;13.622;2022-11-20T03:16:28;16.13;;;11.70;;
68653;SDS011;55636;51.108;13.622;2022-11-20T03:17:30;14.30;;;11.10;;
68653;SDS011;55636;51.108;13.622;2022-11-20T03:18:35;17.10;;;11.65;;
68653;SDS011;55636;51.108;13.622;2022-11-20T03:19:37;14.55;;;10.68;;
68653;SDS011;55636;51.108;13.622;2022-11-20T03:20:42;14.35;;;10.48;;
68653;SDS011;55636;51.108;13.622;2022-11-20T03:21:44;15.43;;;11.23;;
68653;SDS011;55636;51.108;13.622;2022-11-20T03:22:46;14.93;;;11.13;;
68653;SDS011;55636;51.108;13.622;2022-11-20T03:23:49;15.70;;;11.05;;
68653;SDS011;55636;51.108;13.622;2022-11-20T03:24:51;15.18;;;11.35;;
68653;SDS011;55636;51.108;13.622;2022-11-20T03:25:53;17.95;;;11.50;;
68653;SDS011;55636;51.108;13.622;2022-11-20T03:26:56;15.60;;;10.88;;
68653;SDS011;55636;51.108;13.622;2022-11-20T03:27:58;16.52;;;11.07;;
68653;SDS011;55636;51.108;13.622;2022-11-20T03:29:01;17.73;;;11.45;;
68653;SDS011;55636;51.108;13.622;2022-11-20T03:30:05;16.50;;;11.20;;
68653;SDS011;55636;51.108;13.622;2022-11-20T03:31:09;15.57;;;11.07;;
68653;SDS011;55636;51.108;13.622;2022-11-20T03:32:13;15.70;;;10.75;;
68653;SDS011;55636;51.108;13.622;2022-11-20T03:33:15;17.38;;;11.55;;
68653;SDS011;55636;51.108;13.622;2022-11-20T03:34:17;17.05;;;11.82;;
68653;SDS011;55636;51.108;13.622;2022-11-20T03:35:19;16.45;;;12.05;;
68653;SDS011;55636;51.108;13.622;2022-11-20T03:36:22;15.88;;;11.80;;
68653;SDS011;55636;51.108;13.622;2022-11-20T03:37:24;17.52;;;12.30;;
68653;SDS011;55636;51.108;13.622;2022-11-20T03:38:28;16.95;;;12.02;;
68653;SDS011;55636;51.108;13.622;2022-11-20T03:39:32;16.00;;;11.32;;
68653;SDS011;55636;51.108;13.622;2022-11-20T03:40:34;16.50;;;11.77;;
68653;SDS011;55636;51.108;13.622;2022-11-20T03:41:38;15.65;;;11.93;;
68653;SDS011;55636;51.108;13.622;2022-11-20T03:42:42;16.50;;;12.30;;
68653;SDS011;55636;51.108;13.622;2022-11-20T03:43:57;16.08;;;11.85;;
68653;SDS011;55636;51.108;13.622;2022-11-20T03:45:01;17.30;;;12.18;;
68653;SDS011;55636;51.108;13.622;2022-11-20T03:46:03;16.10;;;11.35;;
68653;SDS011;55636;51.108;13.622;2022-11-20T03:47:06;16.52;;;11.95;;
68653;SDS011;55636;51.108;13.622;2022-11-20T03:48:09;17.88;;;11.93;;
68653;SDS011;55636;51.108;13.622;2022-11-20T03:49:11;16.60;;;11.82;;
68653;SDS011;55636;51.108;13.622;2022-11-20T03:50:14;17.45;;;11.85;;
68653;SDS011;55636;51.108;13.622;2022-11-20T03:51:18;17.40;;;11.95;;
68653;SDS011;55636;51.108;13.622;2022-11-20T03:52:32;16.17;;;11.80;;
68653;SDS011;55636;51.108;13.622;2022-11-20T03:53:34;15.23;;;11.20;;
68653;SDS011;55636;51.108;13.622;2022-11-20T03:54:37;15.30;;;11.40;;
68653;SDS011;55636;51.108;13.622;2022-11-20T03:55:39;15.68;;;11.70;;
68653;SDS011;55636;51.108;13.622;2022-11-20T03:56:44;16.48;;;11.43;;
68653;SDS011;55636;51.108;13.622;2022-11-20T03:57:46;15.82;;;11.95;;
68653;SDS011;55636;51.108;13.622;2022-11-20T03:58:48;17.98;;;12.07;;
68653;SDS011;55636;51.108;13.622;2022-11-20T03:59:51;17.73;;;11.90;;
68653;SDS011;55636;51.108;13.622;2022-11-20T04:00:53;17.13;;;12.50;;
68653;SDS011;55636;51.108;13.622;2022-11-20T04:01:55;17.58;;;11.88;;
68653;SDS011;55636;51.108;13.622;2022-11-20T04:02:58;14.88;;;11.18;;
68653;SDS011;55636;51.108;13.622;2022-11-20T04:04:01;17.27;;;11.90;;
68653;SDS011;55636;51.108;13.622;2022-11-20T04:05:04;16.13;;;11.73;;
68653;SDS011;55636;51.108;13.622;2022-11-20T04:06:08;15.55;;;11.10;;
68653;SDS011;55636;51.108;13.622;2022-11-20T04:07:15;16.80;;;11.48;;
68653;SDS011;55636;51.108;13.622;2022-11-20T04:08:17;17.75;;;11.63;;
68653;SDS011;55636;51.108;13.622;2022-11-20T04:09:19;15.57;;;11.13;;
68653;SDS011;55636;51.108;13.622;2022-11-20T04:10:22;19.88;;;12.10;;
68653;SDS011;55636;51.108;13.622;2022-11-20T04:11:29;16.58;;;11.32;;
68653;SDS011;55636;51.108;13.622;2022-11-20T04:12:33;19.20;;;11.27;;
68653;SDS011;55636;51.108;13.622;2022-11-20T04:13:35;16.85;;;11.85;;
68653;SDS011;55636;51.108;13.622;2022-11-20T04:14:38;15.77;;;11.13;;
68653;SDS011;55636;51.108;13.622;2022-11-20T04:15:40;15.65;;;11.15;;
68653;SDS011;55636;51.108;13.622;2022-11-20T04:16:45;15.73;;;11.52;;
68653;SDS011;55636;51.108;13.622;2022-11-20T04:17:48;15.07;;;10.88;;
68653;SDS011;55636;51.108;13.622;2022-11-20T04:18:53;16.88;;;11.27;;
68653;SDS011;55636;51.108;13.622;2022-11-20T04:19:57;16.20;;;11.23;;
68653;SDS011;55636;51.108;13.622;2022-11-20T04:20:59;16.27;;;11.18;;
68653;SDS011;55636;51.108;13.622;2022-11-20T04:22:02;16.00;;;11.52;;
68653;SDS011;55636;51.108;13.622;2022-11-20T04:23:04;15.82;;;11.02;;
68653;SDS011;55636;51.108;13.622;2022-11-20T04:24:06;15.10;;;10.63;;
68653;SDS011;55636;51.108;13.622;2022-11-20T04:25:10;15.73;;;11.15;;
68653;SDS011;55636;51.108;13.622;2022-11-20T04:26:12;14.98;;;10.85;;
68653;SDS011;55636;51.108;13.622;2022-11-20T04:27:15;14.90;;;11.38;;
68653;SDS011;55636;51.108;13.622;2022-11-20T04:28:17;20.90;;;11.75;;
68653;SDS011;55636;51.108;13.622;2022-11-20T04:29:19;15.93;;;11.00;;
68653;SDS011;55636;51.108;13.622;2022-11-20T04:30:22;14.82;;;10.88;;
68653;SDS011;55636;51.108;13.622;2022-11-20T04:31:28;13.85;;;10.57;;
68653;SDS011;55636;51.108;13.622;2022-11-20T04:32:33;16.92;;;11.25;;
68653;SDS011;55636;51.108;13.622;2022-11-20T04:33:36;15.45;;;10.60;;
68653;SDS011;55636;51.108;13.622;2022-11-20T04:34:38;16.98;;;11.35;;
68653;SDS011;55636;51.108;13.622;2022-11-20T04:35:41;15.57;;;10.98;;
68653;SDS011;55636;51.108;13.622;2022-11-20T04:36:43;16.70;;;11.13;;
68653;SDS011;55636;51.108;13.622;2022-11-20T04:37:45;14.80;;;10.68;;
68653;SDS011;55636;51.108;13.622;2022-11-20T04:38:57;16.40;;;11.57;;
68653;SDS011;55636;51.108;13.622;2022-11-20T04:40:01;15.10;;;10.55;;
68653;SDS011;55636;51.108;13.622;2022-11-20T04:41:04;16.90;;;10.75;;
68653;SDS011;55636;51.108;13.622;2022-11-20T04:42:08;16.05;;;11.20;;
68653;SDS011;55636;51.108;13.622;2022-11-20T04:43:30;14.50;;;10.38;;
68653;SDS011;55636;51.108;13.622;2022-11-20T04:44:33;16.17;;;11.05;;
68653;SDS011;55636;51.108;13.622;2022-11-20T04:45:36;16.30;;;11.05;;
68653;SDS011;55636;51.108;13.622;2022-11-20T04:46:39;16.00;;;10.95;;
68653;SDS011;55636;51.108;13.622;2022-11-20T04:47:43;17.92;;;11.57;;
68653;SDS011;55636;51.108;13.622;2022-11-20T04:48:46;16.77;;;10.77;;
68653;SDS011;55636;51.108;13.622;2022-11-20T04:49:49;16.67;;;11.13;;
68653;SDS011;55636;51.108;13.622;2022-11-20T04:50:51;17.08;;;11.52;;
68653;SDS011;55636;51.108;13.622;2022-11-20T04:51:54;16.20;;;11.10;;
68653;SDS011;55636;51.108;13.622;2022-11-20T04:52:56;15.48;;;11.23;;
68653;SDS011;55636;51.108;13.622;2022-11-20T04:53:58;15.93;;;11.38;;
68653;SDS011;55636;51.108;13.622;2022-11-20T04:55:01;17.65;;;11.40;;
68653;SDS011;55636;51.108;13.622;2022-11-20T04:56:04;17.23;;;11.65;;
68653;SDS011;55636;51.108;13.622;2022-11-20T04:57:08;16.52;;;11.43;;
68653;SDS011;55636;51.108;13.622;2022-11-20T04:58:15;16.58;;;11.18;;
68653;SDS011;55636;51.108;13.622;2022-11-20T04:59:18;15.18;;;10.82;;
68653;SDS011;55636;51.108;13.622;2022-11-20T05:00:21;15.23;;;11.18;;
68653;SDS011;55636;51.108;13.622;2022-11-20T05:01:23;16.35;;;11.15;;
68653;SDS011;55636;51.108;13.622;2022-11-20T05:02:26;15.68;;;11.43;;
68653;SDS011;55636;51.108;13.622;2022-11-20T05:03:28;15.50;;;10.90;;
68653;SDS011;55636;51.108;13.622;2022-11-20T05:04:31;14.77;;;11.05;;
68653;SDS011;55636;51.108;13.622;2022-11-20T05:05:33;15.68;;;11.25;;
68653;SDS011;55636;51.108;13.622;2022-11-20T05:06:36;15.38;;;10.75;;
68653;SDS011;55636;51.108;13.622;2022-11-20T05:07:38;15.88;;;10.70;;
68653;SDS011;55636;51.108;13.622;2022-11-20T05:08:41;16.33;;;11.50;;
68653;SDS011;55636;51.108;13.622;2022-11-20T05:09:44;16.33;;;11.30;;
68653;SDS011;55636;51.108;13.622;2022-11-20T05:10:46;15.35;;;11.02;;
68653;SDS011;55636;51.108;13.622;2022-11-20T05:11:48;15.63;;;11.27;;
68653;SDS011;55636;51.108;13.622;2022-11-20T05:12:52;15.80;;;10.73;;
68653;SDS011;55636;51.108;13.622;2022-11-20T05:13:55;16.00;;;11.32;;
68653;SDS011;55636;51.108;13.622;2022-11-20T05:14:57;15.32;;;11.18;;
68653;SDS011;55636;51.108;13.622;2022-11-20T05:16:03;16.05;;;11.38;;
68653;SDS011;55636;51.108;13.622;2022-11-20T05:17:10;16.15;;;10.65;;
68653;SDS011;55636;51.108;13.622;2022-11-20T05:18:13;15.05;;;11.10;;
68653;SDS011;55636;51.108;13.622;2022-11-20T05:19:16;15.50;;;10.70;;
68653;SDS011;55636;51.108;13.622;2022-11-20T05:20:18;15.88;;;11.32;;
68653;SDS011;55636;51.108;13.622;2022-11-20T05:21:21;17.17;;;11.63;;
68653;SDS011;55636;51.108;13.622;2022-11-20T05:22:26;15.20;;;11.30;;
68653;SDS011;55636;51.108;13.622;2022-11-20T05:23:29;15.32;;;11.05;;
68653;SDS011;55636;51.108;13.622;2022-11-20T05:24:33;15.35;;;11.00;;
68653;SDS011;55636;51.108;13.622;2022-11-20T05:25:35;14.57;;;11.00;;
68653;SDS011;55636;51.108;13.622;2022-11-20T05:26:37;15.75;;;11.18;;
68653;SDS011;55636;51.108;13.622;2022-11-20T05:27:40;15.75;;;11.02;;
68653;SDS011;55636;51.108;13.622;2022-11-20T05:28:42;15.32;;;10.45;;
68653;SDS011;55636;51.108;13.622;2022-11-20T05:29:44;15.15;;;10.73;;
68653;SDS011;55636;51.108;13.622;2022-11-20T05:30:46;17.50;;;11.45;;
68653;SDS011;55636;51.108;13.622;2022-11-20T05:31:49;16.60;;;11.35;;
68653;SDS011;55636;51.108;13.622;2022-11-20T05:32:51;16.02;;;11.02;;
68653;SDS011;55636;51.108;13.622;2022-11-20T05:33:54;16.10;;;10.95;;
68653;SDS011;55636;51.108;13.622;2022-11-20T05:34:58;15.27;;;10.93;;
68653;SDS011;55636;51.108;13.622;2022-11-20T05:36:00;16.45;;;11.23;;
68653;SDS011;55636;51.108;13.622;2022-11-20T05:37:03;17.10;;;11.15;;
68653;SDS011;55636;51.108;13.622;2022-11-20T05:38:07;14.57;;;10.70;;
68653;SDS011;55636;51.108;13.622;2022-11-20T05:39:10;16.17;;;11.45;;
68653;SDS011;55636;51.108;13.622;2022-11-20T05:40:12;15.25;;;10.82;;
68653;SDS011;55636;51.108;13.622;2022-11-20T05:41:16;15.25;;;11.13;;
68653;SDS011;55636;51.108;13.622;2022-11-20T05:42:20;15.57;;;10.75;;
68653;SDS011;55636;51.108;13.622;2022-11-20T05:43:35;14.32;;;10.35;;
68653;SDS011;55636;51.108;13.622;2022-11-20T05:44:39;15.02;;;10.82;;
68653;SDS011;55636;51.108;13.622;2022-11-20T05:45:42;15.25;;;10.80;;
68653;SDS011;55636;51.108;13.622;2022-11-20T05:46:44;17.13;;;10.73;;
68653;SDS011;55636;51.108;13.622;2022-11-20T05:47:48;15.45;;;10.82;;
68653;SDS011;55636;51.108;13.622;2022-11-20T05:48:51;15.35;;;10.45;;
68653;SDS011;55636;51.108;13.622;2022-11-20T05:49:53;16.10;;;10.90;;
68653;SDS011;55636;51.108;13.622;2022-11-20T05:50:56;15.13;;;11.02;;
68653;SDS011;55636;51.108;13.622;2022-11-20T05:52:00;14.88;;;10.73;;
68653;SDS011;55636;51.108;13.622;2022-11-20T05:53:02;14.82;;;10.55;;
68653;SDS011;55636;51.108;13.622;2022-11-20T05:54:04;16.00;;;11.35;;
68653;SDS011;55636;51.108;13.622;2022-11-20T05:55:06;14.68;;;10.68;;
68653;SDS011;55636;51.108;13.622;2022-11-20T05:56:10;17.70;;;11.88;;
68653;SDS011;55636;51.108;13.622;2022-11-20T05:57:14;15.98;;;11.25;;
68653;SDS011;55636;51.108;13.622;2022-11-20T05:58:16;17.13;;;10.90;;
68653;SDS011;55636;51.108;13.622;2022-11-20T05:59:21;16.92;;;11.10;;
68653;SDS011;55636;51.108;13.622;2022-11-20T06:00:24;14.88;;;11.07;;
68653;SDS011;55636;51.108;13.622;2022-11-20T06:01:26;17.05;;;11.80;;
68653;SDS011;55636;51.108;13.622;2022-11-20T06:02:28;15.05;;;11.52;;
68653;SDS011;55636;51.108;13.622;2022-11-20T06:03:30;16.90;;;11.57;;
68653;SDS011;55636;51.108;13.622;2022-11-20T06:04:32;18.48;;;11.93;;
68653;SDS011;55636;51.108;13.622;2022-11-20T06:05:35;17.08;;;11.70;;
68653;SDS011;55636;51.108;13.622;2022-11-20T06:06:37;15.45;;;11.63;;
68653;SDS011;55636;51.108;13.622;2022-11-20T06:07:39;15.93;;;11.05;;
68653;SDS011;55636;51.108;13.622;2022-11-20T06:08:42;16.42;;;10.90;;
68653;SDS011;55636;51.108;13.622;2022-11-20T06:09:45;15.45;;;11.00;;
68653;SDS011;55636;51.108;13.622;2022-11-20T06:10:47;17.85;;;11.77;;
68653;SDS011;55636;51.108;13.622;2022-11-20T06:11:50;15.45;;;11.05;;
68653;SDS011;55636;51.108;13.622;2022-11-20T06:12:52;16.13;;;11.23;;
68653;SDS011;55636;51.108;13.622;2022-11-20T06:13:54;15.80;;;11.30;;